Terminal Aerodrome Forecast
Issued by NWS Flagstaff, AZ

Home | Current Version | Previous Version | Text Only | Print | Product List | Glossary On
Versions: 1 2 3 4 5 6 7 8 9 10 11 12 13 14 15
122
FTUS45 KFGZ 221359 CCA
TAFFLG
TAF COR
KFLG 221359Z 2214/2312 22008KT P6SM BKN018 BKN025
      TEMPO 2214/2217 SCT018 BKN025
     FM221700 21015G25KT P6SM BKN020 BKN040
      TEMPO 2222/2302 5SM SHRA OVC020
     FM230200 VRB05KT P6SM BKN020 BKN040 PROB30 2302/2305 5SM -SHRA
      BR=

USA.gov is the U.S. government's official web portal to all federal, state and local government web resources and services.